Time;durP1;ratioP1;P1;durP2;ratioP2;P2;SDS_P1;SDS_P2;PMS_P1;PMS_P2;Temp;Humidity;BMP_temperature;BMP_pressure;BME280_temperature;BME280_humidity;BME280_pressure;Samples;Min_cycle;Max_cycle;Signal;HPM_P1;HPM_P2
2023/06/04 00:02:02;;;;;;;5.40;1.75;;;;;;;;;;7369941;19;20019;-76
2023/06/04 00:04:27;;;;;;;3.92;1.73;;;;;;;;;;7390522;19;20024;-74
2023/06/04 00:06:54;;;;;;;3.92;1.65;;;;;;;;;;7368661;19;20014;-76
2023/06/04 00:09:19;;;;;;;5.47;1.60;;;;;;;;;;7368503;19;20010;-75
2023/06/04 00:11:45;;;;;;;8.27;1.88;;;;;;;;;;7369312;19;20006;-75
2023/06/04 00:14:11;;;;;;;6.80;1.90;;;;;;;;;;7369663;19;20031;-75
2023/06/04 00:16:36;;;;;;;4.78;1.70;;;;;;;;;;7391229;19;20007;-75
2023/06/04 00:19:02;;;;;;;9.98;1.98;;;;;;;;;;7367981;19;20013;-75
2023/06/04 00:21:28;;;;;;;11.13;2.15;;;;;;;;;;7370033;19;20014;-76
2023/06/04 00:23:53;;;;;;;4.32;1.60;;;;;;;;;;7368677;19;20404;-76
2023/06/04 00:26:19;;;;;;;7.00;1.90;;;;;;;;;;7369819;19;20379;-75
2023/06/04 00:28:44;;;;;;;10.15;1.98;;;;;;;;;;7389623;19;20652;-74
2023/06/04 00:31:12;;;;;;;6.75;1.75;;;;;;;;;;7368833;19;20010;-76
2023/06/04 00:33:38;;;;;;;1.95;1.20;;;;;;;;;;7369635;19;20014;-75
2023/06/04 00:36:03;;;;;;;5.10;1.83;;;;;;;;;;7371176;19;20066;-75
2023/06/04 00:38:29;;;;;;;4.93;1.75;;;;;;;;;;7368500;19;20054;-76
2023/06/04 00:40:54;;;;;;;5.68;1.70;;;;;;;;;;7390085;19;20070;-76
2023/06/04 00:43:19;;;;;;;2.45;1.40;;;;;;;;;;7368277;19;20428;-74
2023/06/04 00:45:45;;;;;;;2.63;1.45;;;;;;;;;;7367818;19;20014;-74
2023/06/04 00:48:11;;;;;;;7.65;1.60;;;;;;;;;;7366148;19;20485;-75
2023/06/04 00:50:38;;;;;;;3.83;1.52;;;;;;;;;;7368642;19;20010;-75
2023/06/04 00:53:04;;;;;;;3.00;1.45;;;;;;;;;;7370425;19;20014;-75
2023/06/04 00:55:31;;;;;;;2.75;1.40;;;;;;;;;;7395207;19;20193;-75
2023/06/04 00:57:56;;;;;;;2.95;1.80;;;;;;;;;;7371623;19;20021;-75
2023/06/04 01:00:22;;;;;;;3.40;1.70;;;;;;;;;;7375698;19;20480;-75
2023/06/04 01:02:51;;;;;;;5.72;1.55;;;;;;;;;;7376372;19;20033;-75
2023/06/04 01:05:51;;;;;;;8.27;1.70;;;;;;;;;;7374950;19;20023;-75
2023/06/04 01:08:18;;;;;;;3.00;1.50;;;;;;;;;;7372600;19;20023;-75
2023/06/04 01:10:51;;;;;;;2.53;1.40;;;;;;;;;;7397299;19;20007;-76
2023/06/04 01:13:16;;;;;;;3.80;1.50;;;;;;;;;;7375774;19;20018;-75
2023/06/04 01:15:41;;;;;;;6.57;1.67;;;;;;;;;;7375718;19;20027;-75
2023/06/04 01:18:07;;;;;;;3.08;1.10;;;;;;;;;;7375678;19;20014;-75
2023/06/04 01:20:47;;;;;;;3.55;1.67;;;;;;;;;;7372849;19;20421;-75
2023/06/04 01:23:34;;;;;;;2.88;1.50;;;;;;;;;;7370653;19;20086;-76
2023/06/04 01:26:03;;;;;;;3.83;1.70;;;;;;;;;;7379079;19;20107;-74
2023/06/04 01:28:30;;;;;;;8.10;1.52;;;;;;;;;;7386861;19;20469;-75
2023/06/04 01:30:56;;;;;;;3.53;1.63;;;;;;;;;;7367558;19;20544;-75
2023/06/04 01:33:22;;;;;;;5.28;1.83;;;;;;;;;;7366570;19;20014;-75
2023/06/04 01:35:49;;;;;;;2.33;1.55;;;;;;;;;;7367461;19;20014;-75
2023/06/04 01:38:14;;;;;;;5.75;1.73;;;;;;;;;;7373302;19;20028;-75
2023/06/04 01:40:40;;;;;;;5.40;1.70;;;;;;;;;;7399541;19;19999;-76
2023/06/04 01:43:06;;;;;;;3.42;1.58;;;;;;;;;;7375003;19;20035;-75
2023/06/04 01:45:31;;;;;;;3.22;1.40;;;;;;;;;;7372535;19;20037;-76
2023/06/04 01:47:57;;;;;;;3.92;1.83;;;;;;;;;;7380220;19;20023;-75
2023/06/04 01:50:22;;;;;;;6.28;1.90;;;;;;;;;;7382339;19;20022;-76
2023/06/04 01:52:48;;;;;;;8.43;1.90;;;;;;;;;;7405930;19;20010;-76
2023/06/04 01:55:15;;;;;;;2.65;1.38;;;;;;;;;;7383330;19;20010;-76
2023/06/04 01:57:42;;;;;;;2.00;1.20;;;;;;;;;;7381977;19;20104;-76
2023/06/04 02:00:10;;;;;;;8.10;2.17;;;;;;;;;;7384241;19;20014;-75
2023/06/04 02:02:38;;;;;;;5.82;1.60;;;;;;;;;;7384901;19;20500;-76
2023/06/04 02:05:07;;;;;;;4.70;1.58;;;;;;;;;;7380262;19;20045;-75
2023/06/04 02:07:34;;;;;;;3.75;1.67;;;;;;;;;;7395955;19;20022;-76
2023/06/04 02:10:00;;;;;;;3.20;1.60;;;;;;;;;;7372632;19;20091;-75
2023/06/04 02:12:25;;;;;;;7.32;1.60;;;;;;;;;;7372500;19;20018;-76
2023/06/04 02:14:50;;;;;;;3.20;1.45;;;;;;;;;;7371676;19;20481;-76
2023/06/04 02:17:16;;;;;;;7.55;1.92;;;;;;;;;;7377448;19;20010;-76
2023/06/04 02:19:45;;;;;;;4.60;1.88;;;;;;;;;;7399183;19;20375;-76
2023/06/04 02:22:14;;;;;;;3.40;1.50;;;;;;;;;;7380063;19;20108;-76
2023/06/04 02:24:42;;;;;;;3.47;1.50;;;;;;;;;;7372272;19;20014;-76
2023/06/04 02:27:09;;;;;;;2.80;1.58;;;;;;;;;;7372890;19;20038;-76
2023/06/04 02:29:35;;;;;;;3.60;1.40;;;;;;;;;;7375278;19;20018;-76
2023/06/04 02:32:01;;;;;;;3.22;1.40;;;;;;;;;;7375998;19;20013;-76
2023/06/04 02:34:26;;;;;;;3.47;1.88;;;;;;;;;;7396679;19;20066;-75
2023/06/04 02:36:51;;;;;;;4.03;1.50;;;;;;;;;;7374103;19;20074;-76
2023/06/04 02:39:18;;;;;;;9.63;1.75;;;;;;;;;;7375749;19;20010;-76
2023/06/04 02:41:44;;;;;;;2.10;1.27;;;;;;;;;;7372573;19;20044;-76
2023/06/04 02:44:09;;;;;;;4.60;1.50;;;;;;;;;;7371290;19;20521;-75
2023/06/04 02:46:35;;;;;;;3.42;1.45;;;;;;;;;;7392361;19;20019;-76
2023/06/04 02:49:00;;;;;;;5.28;1.60;;;;;;;;;;7373776;19;20118;-76
2023/06/04 02:51:26;;;;;;;3.75;1.50;;;;;;;;;;7372116;19;20017;-75
2023/06/04 02:53:51;;;;;;;5.75;1.60;;;;;;;;;;7370753;19;20003;-76
2023/06/04 02:56:17;;;;;;;2.60;1.55;;;;;;;;;;7371139;19;20014;-76
2023/06/04 02:58:53;;;;;;;4.07;1.50;;;;;;;;;;7389845;19;20675;-76
2023/06/04 03:01:26;;;;;;;2.95;1.45;;;;;;;;;;7370656;19;20085;-75
2023/06/04 03:03:53;;;;;;;4.88;1.92;;;;;;;;;;7378188;19;20010;-76
2023/06/04 03:06:22;;;;;;;4.32;1.50;;;;;;;;;;7381609;19;20018;-76
2023/06/04 03:08:51;;;;;;;11.02;1.73;;;;;;;;;;7381978;19;20010;-76
2023/06/04 03:11:19;;;;;;;2.58;1.58;;;;;;;;;;7378638;19;20041;-76
2023/06/04 03:13:44;;;;;;;1.80;1.33;;;;;;;;;;7394924;19;20017;-76
2023/06/04 03:16:10;;;;;;;4.50;1.60;;;;;;;;;;7368399;19;20007;-75
2023/06/04 03:18:42;;;;;;;4.00;1.80;;;;;;;;;;7368884;19;20010;-76
2023/06/04 03:21:08;;;;;;;2.65;1.40;;;;;;;;;;7368416;19;20029;-76
2023/06/04 03:23:35;;;;;;;4.35;1.77;;;;;;;;;;7369276;19;20018;-76
2023/06/04 03:26:04;;;;;;;4.93;1.83;;;;;;;;;;7372378;19;20095;-75
2023/06/04 03:28:29;;;;;;;6.15;1.58;;;;;;;;;;7394202;19;20014;-76
2023/06/04 03:30:55;;;;;;;4.95;1.50;;;;;;;;;;7379700;19;20009;-75
2023/06/04 03:33:20;;;;;;;5.03;1.50;;;;;;;;;;7380514;19;20003;-76
2023/06/04 03:35:47;;;;;;;2.40;1.35;;;;;;;;;;7381445;19;20481;-76
2023/06/04 03:38:13;;;;;;;5.28;1.60;;;;;;;;;;7378803;19;20028;-76
2023/06/04 03:40:38;;;;;;;3.45;1.60;;;;;;;;;;7403652;19;20062;-76
2023/06/04 03:43:04;;;;;;;4.07;1.70;;;;;;;;;;7383858;19;19999;-76
2023/06/04 03:45:30;;;;;;;3.70;1.42;;;;;;;;;;7380514;19;20022;-75
2023/06/04 03:47:55;;;;;;;6.80;1.67;;;;;;;;;;7382432;19;20019;-75
2023/06/04 03:50:20;;;;;;;5.45;1.60;;;;;;;;;;7391688;19;20025;-75
2023/06/04 03:52:47;;;;;;;4.93;1.52;;;;;;;;;;7412609;19;19998;-75
2023/06/04 03:55:13;;;;;;;6.68;1.63;;;;;;;;;;7389850;19;20006;-75
2023/06/04 03:57:38;;;;;;;4.50;1.45;;;;;;;;;;7389381;19;20027;-75
2023/06/04 04:00:06;;;;;;;3.92;1.45;;;;;;;;;;7381156;19;20009;-75
2023/06/04 04:02:31;;;;;;;2.95;1.55;;;;;;;;;;7376275;19;20468;-75
2023/06/04 04:04:57;;;;;;;5.43;1.52;;;;;;;;;;7402309;19;19994;-75
2023/06/04 04:07:23;;;;;;;3.92;1.58;;;;;;;;;;7369807;19;20094;-76
2023/06/04 04:09:48;;;;;;;2.45;1.50;;;;;;;;;;7366962;19;20036;-75
2023/06/04 04:12:14;;;;;;;2.97;1.60;;;;;;;;;;7367168;19;20410;-75
2023/06/04 04:14:39;;;;;;;5.38;1.90;;;;;;;;;;7367060;19;20418;-76
2023/06/04 04:17:05;;;;;;;5.05;1.48;;;;;;;;;;7368972;19;20014;-75
2023/06/04 04:19:30;;;;;;;4.43;1.90;;;;;;;;;;7394644;19;20363;-75
2023/06/04 04:21:56;;;;;;;2.60;1.70;;;;;;;;;;7373543;19;20013;-75
2023/06/04 04:24:25;;;;;;;6.90;1.55;;;;;;;;;;7371864;19;20027;-75
2023/06/04 04:26:54;;;;;;;3.47;1.65;;;;;;;;;;7367237;19;20472;-75
2023/06/04 04:29:22;;;;;;;3.50;1.70;;;;;;;;;;7366512;19;20003;-75
2023/06/04 04:31:49;;;;;;;4.50;1.88;;;;;;;;;;7391354;19;20074;-75
2023/06/04 04:34:14;;;;;;;3.97;1.70;;;;;;;;;;7368542;19;20170;-75
2023/06/04 04:36:40;;;;;;;4.97;1.60;;;;;;;;;;7368174;19;20019;-75
2023/06/04 04:39:05;;;;;;;3.65;1.52;;;;;;;;;;7367357;19;20134;-74
2023/06/04 04:41:32;;;;;;;3.65;1.80;;;;;;;;;;7369479;19;20011;-75
2023/06/04 04:44:03;;;;;;;3.42;1.80;;;;;;;;;;7391005;19;20002;-74
2023/06/04 04:46:28;;;;;;;3.53;1.83;;;;;;;;;;7367930;19;20033;-74
2023/06/04 04:48:54;;;;;;;2.67;1.70;;;;;;;;;;7366877;19;20006;-74
2023/06/04 04:51:19;;;;;;;4.35;1.77;;;;;;;;;;7368753;19;20022;-74
2023/06/04 04:53:44;;;;;;;4.07;1.90;;;;;;;;;;7367861;19;20475;-74
2023/06/04 04:56:10;;;;;;;5.47;1.60;;;;;;;;;;7368317;19;20071;-74
2023/06/04 04:58:35;;;;;;;3.70;1.77;;;;;;;;;;7388220;19;20031;-74
2023/06/04 05:01:00;;;;;;;5.22;1.83;;;;;;;;;;7369331;19;20007;-74
2023/06/04 05:03:27;;;;;;;3.80;1.70;;;;;;;;;;7374727;19;20018;-75
2023/06/04 05:05:52;;;;;;;3.72;2.35;;;;;;;;;;7375749;19;20070;-74
2023/06/04 05:08:17;;;;;;;4.40;1.73;;;;;;;;;;7373683;19;21004;-74
2023/06/04 05:10:43;;;;;;;3.63;1.67;;;;;;;;;;7392507;19;20028;-75
2023/06/04 05:13:08;;;;;;;3.97;1.60;;;;;;;;;;7368573;19;20018;-74
2023/06/04 05:15:34;;;;;;;3.13;1.70;;;;;;;;;;7367203;19;20007;-75
2023/06/04 05:18:00;;;;;;;3.42;1.75;;;;;;;;;;7367423;19;20003;-74
2023/06/04 05:20:26;;;;;;;6.90;1.95;;;;;;;;;;7368447;19;20397;-74
2023/06/04 05:22:51;;;;;;;3.90;1.75;;;;;;;;;;7398275;19;19999;-74
2023/06/04 05:25:17;;;;;;;3.83;1.70;;;;;;;;;;7373467;19;20750;-74
2023/06/04 05:27:42;;;;;;;4.45;1.58;;;;;;;;;;7372800;19;20002;-75
2023/06/04 05:30:08;;;;;;;4.43;1.80;;;;;;;;;;7375335;19;20581;-75
2023/06/04 05:32:36;;;;;;;5.00;2.10;;;;;;;;;;7375026;19;20035;-75
2023/06/04 05:35:04;;;;;;;5.80;1.88;;;;;;;;;;7375352;19;20480;-75
2023/06/04 05:37:29;;;;;;;6.65;1.60;;;;;;;;;;7395302;19;20019;-75
2023/06/04 05:39:57;;;;;;;5.93;1.73;;;;;;;;;;7374230;19;20014;-77
2023/06/04 05:42:23;;;;;;;5.28;1.80;;;;;;;;;;7377201;19;20007;-75
2023/06/04 05:44:49;;;;;;;4.68;2.10;;;;;;;;;;7376451;19;20017;-75
2023/06/04 05:47:16;;;;;;;4.18;1.80;;;;;;;;;;7374542;19;19999;-76
2023/06/04 05:49:42;;;;;;;5.88;1.85;;;;;;;;;;7395423;19;20023;-75
2023/06/04 05:52:07;;;;;;;3.65;1.65;;;;;;;;;;7373433;19;20014;-74
2023/06/04 05:54:32;;;;;;;5.38;2.15;;;;;;;;;;7373771;19;20014;-74
2023/06/04 05:56:58;;;;;;;6.10;1.98;;;;;;;;;;7374573;19;20009;-73
2023/06/04 05:59:23;;;;;;;3.75;1.70;;;;;;;;;;7371515;19;20022;-73
2023/06/04 06:01:49;;;;;;;2.90;1.55;;;;;;;;;;7395373;19;20017;-74
2023/06/04 06:04:15;;;;;;;5.65;1.60;;;;;;;;;;7372447;19;20010;-75
2023/06/04 06:06:43;;;;;;;3.67;1.73;;;;;;;;;;7373490;19;20010;-75
2023/06/04 06:09:09;;;;;;;6.47;1.70;;;;;;;;;;7373626;19;20007;-74
2023/06/04 06:11:35;;;;;;;3.65;1.63;;;;;;;;;;7374317;19;20007;-75
2023/06/04 06:14:01;;;;;;;2.97;1.98;;;;;;;;;;7374493;19;20027;-76
2023/06/04 06:16:26;;;;;;;4.55;1.85;;;;;;;;;;7394811;19;20368;-75
2023/06/04 06:18:52;;;;;;;3.30;1.88;;;;;;;;;;7376254;19;20496;-75
2023/06/04 06:21:18;;;;;;;4.40;1.90;;;;;;;;;;7380096;19;20497;-75
2023/06/04 06:23:43;;;;;;;5.93;1.92;;;;;;;;;;7379961;19;20027;-75
2023/06/04 06:26:08;;;;;;;4.35;1.60;;;;;;;;;;7379043;19;20026;-75
2023/06/04 06:28:35;;;;;;;2.92;1.65;;;;;;;;;;7394186;19;20014;-75
2023/06/04 06:31:01;;;;;;;2.83;1.67;;;;;;;;;;7373037;19;20003;-75
2023/06/04 06:33:26;;;;;;;4.20;2.10;;;;;;;;;;7372859;19;20010;-75
2023/06/04 06:35:51;;;;;;;5.40;2.00;;;;;;;;;;7374193;19;20017;-75
2023/06/04 06:38:17;;;;;;;4.93;1.77;;;;;;;;;;7370105;19;20349;-75
2023/06/04 06:40:42;;;;;;;3.47;1.67;;;;;;;;;;7395627;19;20028;-75
2023/06/04 06:43:07;;;;;;;3.03;1.70;;;;;;;;;;7373808;19;20014;-75
2023/06/04 06:45:33;;;;;;;4.75;1.77;;;;;;;;;;7373974;19;20100;-76
2023/06/04 06:47:58;;;;;;;5.03;1.67;;;;;;;;;;7372820;19;20003;-75
2023/06/04 06:50:23;;;;;;;3.88;1.60;;;;;;;;;;7374593;19;20058;-75
2023/06/04 06:52:49;;;;;;;2.60;1.50;;;;;;;;;;7394524;19;20477;-75
2023/06/04 06:55:15;;;;;;;5.75;1.90;;;;;;;;;;7372545;19;20014;-75
2023/06/04 06:57:40;;;;;;;4.53;1.55;;;;;;;;;;7367794;19;20039;-75
2023/06/04 07:00:07;;;;;;;8.35;1.70;;;;;;;;;;7367081;19;20017;-73
2023/06/04 07:02:32;;;;;;;5.97;1.60;;;;;;;;;;7369678;19;20431;-74
2023/06/04 07:04:57;;;;;;;5.68;1.90;;;;;;;;;;7391937;19;20018;-75
2023/06/04 07:07:23;;;;;;;3.08;1.60;;;;;;;;;;7370132;19;20783;-75
2023/06/04 07:09:48;;;;;;;3.92;1.50;;;;;;;;;;7370265;19;20010;-76
2023/06/04 07:12:14;;;;;;;2.67;1.67;;;;;;;;;;7371315;19;20053;-75
2023/06/04 07:14:39;;;;;;;2.95;1.65;;;;;;;;;;7372474;19;20070;-73
2023/06/04 07:17:05;;;;;;;1.70;1.45;;;;;;;;;;7369302;19;20018;-75
2023/06/04 07:19:30;;;;;;;2.65;1.70;;;;;;;;;;7393416;19;20006;-75
2023/06/04 07:21:55;;;;;;;2.92;1.50;;;;;;;;;;7375297;19;20019;-74
2023/06/04 07:24:21;;;;;;;4.30;1.60;;;;;;;;;;7372289;19;20413;-75
2023/06/04 07:26:47;;;;;;;2.50;1.67;;;;;;;;;;7371975;19;20074;-74
2023/06/04 07:29:12;;;;;;;2.20;1.50;;;;;;;;;;7369649;19;20014;-75
2023/06/04 07:31:38;;;;;;;3.65;1.90;;;;;;;;;;7392835;19;20508;-74
2023/06/04 07:34:03;;;;;;;2.03;1.35;;;;;;;;;;7369105;19;20014;-75
2023/06/04 07:36:29;;;;;;;2.58;1.58;;;;;;;;;;7370582;19;20023;-74
2023/06/04 07:38:55;;;;;;;6.70;2.08;;;;;;;;;;7372966;19;20357;-75
2023/06/04 07:41:20;;;;;;;4.00;1.80;;;;;;;;;;7374385;19;20010;-74
2023/06/04 07:43:45;;;;;;;6.40;1.80;;;;;;;;;;7392285;19;20010;-74
2023/06/04 07:46:11;;;;;;;3.13;1.85;;;;;;;;;;7369894;19;20027;-74
2023/06/04 07:48:36;;;;;;;4.20;1.80;;;;;;;;;;7371800;19;20010;-73
2023/06/04 07:51:04;;;;;;;3.63;1.40;;;;;;;;;;7373397;19;20685;-73
2023/06/04 07:53:29;;;;;;;3.63;1.70;;;;;;;;;;7373791;19;20010;-74
2023/06/04 07:55:57;;;;;;;3.47;1.65;;;;;;;;;;7397876;19;20152;-76
2023/06/04 07:58:22;;;;;;;2.17;1.50;;;;;;;;;;7371749;19;20029;-76
2023/06/04 08:00:48;;;;;;;4.15;1.70;;;;;;;;;;7375746;19;20509;-74
2023/06/04 08:03:15;;;;;;;3.83;1.80;;;;;;;;;;7374635;19;20021;-74
2023/06/04 08:05:40;;;;;;;4.55;1.70;;;;;;;;;;7372767;19;20014;-74
2023/06/04 08:08:05;;;;;;;8.70;1.80;;;;;;;;;;7367106;19;20025;-74
2023/06/04 08:10:31;;;;;;;4.22;1.77;;;;;;;;;;7391119;19;20006;-73
2023/06/04 08:12:56;;;;;;;2.97;1.65;;;;;;;;;;7371511;19;20078;-73
2023/06/04 08:15:22;;;;;;;3.92;1.80;;;;;;;;;;7372823;19;20468;-75
2023/06/04 08:17:48;;;;;;;4.32;1.80;;;;;;;;;;7371564;19;20831;-75
2023/06/04 08:20:13;;;;;;;4.78;1.95;;;;;;;;;;7371687;19;20074;-74
2023/06/04 08:22:38;;;;;;;4.70;1.80;;;;;;;;;;7395687;19;20038;-74
2023/06/04 08:25:04;;;;;;;7.60;1.92;;;;;;;;;;7372458;19;20023;-74
2023/06/04 08:27:30;;;;;;;4.95;1.85;;;;;;;;;;7372484;19;20011;-74
2023/06/04 08:29:57;;;;;;;4.60;1.60;;;;;;;;;;7372021;19;20006;-75
2023/06/04 08:32:22;;;;;;;7.07;1.90;;;;;;;;;;7371459;19;20028;-75
2023/06/04 08:34:48;;;;;;;3.17;1.70;;;;;;;;;;7392944;19;20007;-74
2023/06/04 08:37:13;;;;;;;3.08;1.83;;;;;;;;;;7370672;19;20041;-75
2023/06/04 08:39:38;;;;;;;4.53;1.92;;;;;;;;;;7370566;19;20013;-75
2023/06/04 08:42:07;;;;;;;4.05;1.80;;;;;;;;;;7372929;19;20031;-75
2023/06/04 08:44:33;;;;;;;5.65;1.95;;;;;;;;;;7371995;19;20010;-74
2023/06/04 08:47:04;;;;;;;4.25;1.77;;;;;;;;;;7390337;19;20030;-73
2023/06/04 08:49:35;;;;;;;2.55;1.70;;;;;;;;;;7367762;19;20003;-74
2023/06/04 08:52:00;;;;;;;5.47;2.10;;;;;;;;;;7369491;19;20007;-74
2023/06/04 08:54:26;;;;;;;4.73;2.10;;;;;;;;;;7367959;19;20011;-74
2023/06/04 08:56:52;;;;;;;4.13;1.75;;;;;;;;;;7363268;19;20272;-74
2023/06/04 08:59:17;;;;;;;2.35;1.55;;;;;;;;;;7365627;19;20007;-74
2023/06/04 09:01:44;;;;;;;2.25;1.40;;;;;;;;;;7386321;19;20007;-73
2023/06/04 09:04:10;;;;;;;4.22;1.98;;;;;;;;;;7365392;19;20385;-74
2023/06/04 09:06:37;;;;;;;3.78;1.90;;;;;;;;;;7368056;19;20021;-74
2023/06/04 09:09:08;;;;;;;4.20;2.20;;;;;;;;;;7364950;19;20017;-74
2023/06/04 09:11:45;;;;;;;5.25;1.73;;;;;;;;;;7368945;19;20006;-74
2023/06/04 09:14:16;;;;;;;4.43;1.70;;;;;;;;;;7367378;19;20395;-74
2023/06/04 09:16:53;;;;;;;4.53;1.85;;;;;;;;;;7387091;19;20019;-74
2023/06/04 09:19:19;;;;;;;3.78;1.80;;;;;;;;;;7364816;19;20482;-74
2023/06/04 09:21:47;;;;;;;5.88;1.80;;;;;;;;;;7363449;19;20010;-74
2023/06/04 09:24:13;;;;;;;3.38;1.67;;;;;;;;;;7367673;19;20010;-74
2023/06/04 09:26:38;;;;;;;4.55;1.83;;;;;;;;;;7369082;19;20334;-74
2023/06/04 09:29:05;;;;;;;8.95;1.75;;;;;;;;;;7369610;19;20042;-74
2023/06/04 09:31:36;;;;;;;5.75;1.63;;;;;;;;;;7393750;19;20487;-74
2023/06/04 09:34:02;;;;;;;5.05;1.75;;;;;;;;;;7368515;19;20047;-75
2023/06/04 09:36:31;;;;;;;3.83;1.77;;;;;;;;;;7362201;19;20584;-73
2023/06/04 09:38:56;;;;;;;4.40;1.80;;;;;;;;;;7360958;19;20017;-74
2023/06/04 09:41:22;;;;;;;3.33;1.88;;;;;;;;;;7364663;19;20393;-74
2023/06/04 09:43:47;;;;;;;3.67;1.65;;;;;;;;;;7387586;19;20002;-73
2023/06/04 09:46:17;;;;;;;3.47;1.75;;;;;;;;;;7364603;19;20014;-74
2023/06/04 09:48:44;;;;;;;2.63;1.60;;;;;;;;;;7362382;19;20018;-74
2023/06/04 09:51:19;;;;;;;4.60;1.77;;;;;;;;;;7363659;19;20014;-74
2023/06/04 09:53:55;;;;;;;3.80;1.65;;;;;;;;;;7363565;19;20014;-75
2023/06/04 09:56:21;;;;;;;3.92;1.90;;;;;;;;;;7364478;19;20387;-75
2023/06/04 09:58:48;;;;;;;4.28;1.80;;;;;;;;;;7384650;19;20078;-74
2023/06/04 10:01:14;;;;;;;3.67;1.73;;;;;;;;;;7365107;19;20006;-74
2023/06/04 10:03:45;;;;;;;7.13;1.60;;;;;;;;;;7363191;19;20485;-74
2023/06/04 10:06:12;;;;;;;3.67;1.70;;;;;;;;;;7364112;19;20010;-74
2023/06/04 10:08:41;;;;;;;6.18;1.88;;;;;;;;;;7371551;19;20013;-74
2023/06/04 10:11:07;;;;;;;4.05;2.00;;;;;;;;;;7368908;19;20414;-73
2023/06/04 10:13:41;;;;;;;6.60;1.70;;;;;;;;;;7392693;19;20023;-75
2023/06/04 10:16:07;;;;;;;6.15;1.70;;;;;;;;;;7370878;19;20093;-74
2023/06/04 10:18:33;;;;;;;3.33;1.80;;;;;;;;;;7368901;19;20015;-73
2023/06/04 10:21:00;;;;;;;4.93;1.88;;;;;;;;;;7372455;19;20032;-73
2023/06/04 10:23:25;;;;;;;3.47;1.83;;;;;;;;;;7372221;19;20755;-73
2023/06/04 10:25:52;;;;;;;4.95;1.90;;;;;;;;;;7391784;19;20018;-73
2023/06/04 10:28:22;;;;;;;7.13;1.60;;;;;;;;;;7367039;19;20039;-74
2023/06/04 10:30:50;;;;;;;3.10;1.70;;;;;;;;;;7369933;19;20011;-73
2023/06/04 10:33:20;;;;;;;5.13;1.75;;;;;;;;;;7371701;19;20388;-74
2023/06/04 10:35:45;;;;;;;3.75;1.90;;;;;;;;;;7369008;19;20058;-73
2023/06/04 10:38:13;;;;;;;3.42;1.70;;;;;;;;;;7366269;19;20007;-75
2023/06/04 10:40:39;;;;;;;3.38;1.63;;;;;;;;;;7392564;19;20012;-74
2023/06/04 10:43:12;;;;;;;6.18;1.80;;;;;;;;;;7370716;19;20014;-74
2023/06/04 10:45:38;;;;;;;5.68;1.58;;;;;;;;;;7367933;19;20097;-73
2023/06/04 10:48:06;;;;;;;5.50;1.80;;;;;;;;;;7368090;19;20010;-73
2023/06/04 10:50:33;;;;;;;2.70;1.40;;;;;;;;;;7370149;19;20556;-73
2023/06/04 10:53:02;;;;;;;4.35;1.80;;;;;;;;;;7391303;19;20010;-73
2023/06/04 10:55:29;;;;;;;5.15;1.77;;;;;;;;;;7392894;19;20484;-73
2023/06/04 10:57:55;;;;;;;3.38;1.70;;;;;;;;;;7367645;19;20010;-73
2023/06/04 11:00:22;;;;;;;2.47;1.58;;;;;;;;;;7369698;19;20330;-73
2023/06/04 11:02:51;;;;;;;6.43;1.88;;;;;;;;;;7371182;19;20027;-73
2023/06/04 11:05:17;;;;;;;4.22;1.45;;;;;;;;;;7368836;19;20054;-73
2023/06/04 11:07:45;;;;;;;3.00;1.65;;;;;;;;;;7394969;19;20010;-74
2023/06/04 11:10:15;;;;;;;2.85;1.60;;;;;;;;;;7377335;19;20477;-73
2023/06/04 11:12:43;;;;;;;3.90;1.47;;;;;;;;;;7376566;19;20107;-74
2023/06/04 11:15:09;;;;;;;3.67;1.73;;;;;;;;;;7378496;19;20469;-73
2023/06/04 11:17:34;;;;;;;3.35;1.60;;;;;;;;;;7376376;19;20056;-73
2023/06/04 11:20:00;;;;;;;4.88;2.00;;;;;;;;;;7386668;19;20007;-74
2023/06/04 11:22:25;;;;;;;4.18;1.83;;;;;;;;;;7400454;19;20003;-74
2023/06/04 11:24:58;;;;;;;3.33;1.67;;;;;;;;;;7379929;19;20010;-74
2023/06/04 11:27:24;;;;;;;2.80;1.48;;;;;;;;;;7381313;19;20493;-73
2023/06/04 11:29:51;;;;;;;2.72;1.60;;;;;;;;;;7380196;19;20082;-73
2023/06/04 11:32:23;;;;;;;3.22;1.90;;;;;;;;;;7386935;19;20074;-74
2023/06/04 11:34:48;;;;;;;5.47;1.75;;;;;;;;;;7397178;19;19998;-74
2023/06/04 11:37:14;;;;;;;4.25;1.77;;;;;;;;;;7372900;19;20121;-72
2023/06/04 11:39:42;;;;;;;3.22;1.90;;;;;;;;;;7370884;19;20006;-74
2023/06/04 11:42:08;;;;;;;3.97;1.80;;;;;;;;;;7372050;19;20085;-74
2023/06/04 11:44:33;;;;;;;3.60;1.95;;;;;;;;;;7371182;19;20429;-73
2023/06/04 11:46:59;;;;;;;3.10;1.70;;;;;;;;;;7387922;19;20006;-74
2023/06/04 11:49:26;;;;;;;3.55;1.70;;;;;;;;;;7382625;19;20022;-73
2023/06/04 11:51:52;;;;;;;1.90;1.38;;;;;;;;;;7371451;19;20014;-74
2023/06/04 11:54:19;;;;;;;4.05;1.95;;;;;;;;;;7371541;19;20053;-74
2023/06/04 11:56:46;;;;;;;4.68;1.80;;;;;;;;;;7368557;19;20014;-74
2023/06/04 11:59:15;;;;;;;5.13;1.80;;;;;;;;;;7368628;19;20007;-74
2023/06/04 12:01:42;;;;;;;3.60;1.77;;;;;;;;;;7389927;19;20014;-74
2023/06/04 12:04:17;;;;;;;4.00;1.60;;;;;;;;;;7370280;19;20839;-74
2023/06/04 12:06:57;;;;;;;4.72;1.98;;;;;;;;;;7370572;19;20006;-74
2023/06/04 12:09:28;;;;;;;4.68;2.00;;;;;;;;;;7359535;19;20010;-73
2023/06/04 12:12:00;;;;;;;2.33;1.50;;;;;;;;;;7365735;19;20038;-74
2023/06/04 12:14:26;;;;;;;3.85;1.80;;;;;;;;;;7368032;19;20006;-73
2023/06/04 12:17:02;;;;;;;2.78;1.70;;;;;;;;;;7388187;19;20014;-74
2023/06/04 12:19:28;;;;;;;3.97;1.80;;;;;;;;;;7367167;19;20011;-74
2023/06/04 12:22:04;;;;;;;4.65;1.95;;;;;;;;;;7368561;19;20011;-73
2023/06/04 12:24:36;;;;;;;3.25;1.77;;;;;;;;;;7367499;19;20368;-74
2023/06/04 12:27:03;;;;;;;5.57;1.70;;;;;;;;;;7367776;19;20013;-77
2023/06/04 12:29:28;;;;;;;2.80;2.00;;;;;;;;;;7366219;19;20533;-75
2023/06/04 12:32:13;;;;;;;3.42;1.92;;;;;;;;;;7388888;19;20007;-75
2023/06/04 12:34:40;;;;;;;6.82;1.98;;;;;;;;;;7368346;19;20006;-74
2023/06/04 12:37:06;;;;;;;3.15;1.67;;;;;;;;;;7369382;19;20342;-74
2023/06/04 12:39:33;;;;;;;5.68;1.90;;;;;;;;;;7370982;19;20081;-73
2023/06/04 12:41:58;;;;;;;5.47;1.67;;;;;;;;;;7369777;19;20084;-74
2023/06/04 12:44:23;;;;;;;4.05;2.00;;;;;;;;;;7376018;19;20073;-74
2023/06/04 12:46:50;;;;;;;2.75;1.23;;;;;;;;;;7397992;19;20009;-74
2023/06/04 12:49:15;;;;;;;2.28;1.58;;;;;;;;;;7379714;19;20014;-74
2023/06/04 12:51:40;;;;;;;6.05;2.35;;;;;;;;;;7381175;19;20060;-74
2023/06/04 12:54:06;;;;;;;4.22;1.75;;;;;;;;;;7379573;19;20011;-74
2023/06/04 12:56:31;;;;;;;6.05;2.75;;;;;;;;;;7378726;19;20011;-74
2023/06/04 12:58:56;;;;;;;5.97;3.20;;;;;;;;;;7387908;19;20002;-74
2023/06/04 13:01:22;;;;;;;7.85;2.97;;;;;;;;;;7365989;19;20014;-74
2023/06/04 13:03:47;;;;;;;11.55;1.83;;;;;;;;;;7366479;19;20018;-69
2023/06/04 13:06:13;;;;;;;5.07;1.70;;;;;;;;;;7364656;19;20039;-68
2023/06/04 13:08:38;;;;;;;3.25;1.95;;;;;;;;;;7366985;19;20274;-67
2023/06/04 13:11:05;;;;;;;5.90;2.30;;;;;;;;;;7365804;19;20619;-67
2023/06/04 13:13:30;;;;;;;3.65;2.10;;;;;;;;;;7385934;19;20079;-65
2023/06/04 13:15:56;;;;;;;5.25;1.80;;;;;;;;;;7361510;19;20712;-67
2023/06/04 13:18:21;;;;;;;3.88;2.10;;;;;;;;;;7361573;19;20011;-66
2023/06/04 13:20:48;;;;;;;5.35;1.80;;;;;;;;;;7362466;19;20015;-66
2023/06/04 13:23:14;;;;;;;2.80;1.70;;;;;;;;;;7361966;19;20014;-67
2023/06/04 13:25:39;;;;;;;6.43;1.83;;;;;;;;;;7384268;19;20022;-66
2023/06/04 13:28:05;;;;;;;4.53;1.88;;;;;;;;;;7352088;19;20564;-66
2023/06/04 13:30:30;;;;;;;4.80;2.10;;;;;;;;;;7359985;19;20007;-66
2023/06/04 13:32:58;;;;;;;5.57;2.00;;;;;;;;;;7356744;19;20015;-65
2023/06/04 13:35:23;;;;;;;4.60;1.80;;;;;;;;;;7366235;19;20011;-66
2023/06/04 13:37:49;;;;;;;6.45;3.60;;;;;;;;;;7384552;19;20044;-66
2023/06/04 13:40:15;;;;;;;3.08;2.08;;;;;;;;;;7364156;19;20003;-66
2023/06/04 13:42:42;;;;;;;20.27;3.30;;;;;;;;;;7366725;19;20281;-66
2023/06/04 13:45:08;;;;;;;8.38;1.95;;;;;;;;;;7368855;19;20591;-66
2023/06/04 13:47:33;;;;;;;6.90;2.00;;;;;;;;;;7366856;19;20011;-67
2023/06/04 13:49:59;;;;;;;4.30;1.95;;;;;;;;;;7385847;19;20006;-67
2023/06/04 13:52:24;;;;;;;4.03;2.30;;;;;;;;;;7377148;19;20014;-66
2023/06/04 13:54:51;;;;;;;4.03;2.03;;;;;;;;;;7369605;19;20436;-66
2023/06/04 13:57:16;;;;;;;5.32;1.95;;;;;;;;;;7371574;19;20081;-65
2023/06/04 13:59:41;;;;;;;4.03;1.95;;;;;;;;;;7370450;19;20414;-67
2023/06/04 14:02:07;;;;;;;7.67;2.10;;;;;;;;;;7368800;19;20017;-67
2023/06/04 14:04:32;;;;;;;4.07;1.80;;;;;;;;;;7391018;19;20308;-66
2023/06/04 14:06:58;;;;;;;3.72;1.60;;;;;;;;;;7369585;19;20031;-67
2023/06/04 14:09:23;;;;;;;5.28;1.73;;;;;;;;;;7370323;19;20014;-66
2023/06/04 14:11:50;;;;;;;4.65;2.22;;;;;;;;;;7370984;19;20002;-67
2023/06/04 14:14:19;;;;;;;3.85;1.95;;;;;;;;;;7369687;19;20002;-66
2023/06/04 14:16:45;;;;;;;7.32;1.80;;;;;;;;;;7391388;19;20143;-66
2023/06/04 14:19:10;;;;;;;5.15;1.90;;;;;;;;;;7369269;19;20023;-67
2023/06/04 14:21:36;;;;;;;6.32;1.75;;;;;;;;;;7371131;19;20122;-67
2023/06/04 14:24:02;;;;;;;2.70;1.60;;;;;;;;;;7370637;19;20011;-66
2023/06/04 14:26:28;;;;;;;4.30;1.88;;;;;;;;;;7370829;19;20010;-67
2023/06/04 14:28:53;;;;;;;4.65;1.65;;;;;;;;;;7392798;19;20014;-66
2023/06/04 14:31:19;;;;;;;3.45;1.55;;;;;;;;;;7371267;19;20108;-65
2023/06/04 14:33:44;;;;;;;3.85;1.88;;;;;;;;;;7376274;19;20403;-66
2023/06/04 14:36:10;;;;;;;5.20;1.98;;;;;;;;;;7373549;19;20007;-66
2023/06/04 14:38:35;;;;;;;6.55;2.45;;;;;;;;;;7373495;19;20010;-66
2023/06/04 14:41:00;;;;;;;7.97;2.28;;;;;;;;;;7372771;19;20003;-65